Time;durP1;ratioP1;P1;durP2;ratioP2;P2;SDS_P1;SDS_P2;PMS_P1;PMS_P2;Temp;Humidity;BMP_temperature;BMP_pressure;BME280_temperature;BME280_humidity;BME280_pressure;Samples;Min_cycle;Max_cycle;Signal;HPM_P1;HPM_P2
2023/04/07 00:00:51;;;;;;;32.90;16.83;;;;;;;;;;5067778;28;20209;-72
2023/04/07 00:03:16;;;;;;;29.73;16.73;;;;;;;;;;5087695;28;20067;-72
2023/04/07 00:05:41;;;;;;;33.70;17.57;;;;;;;;;;5064404;28;20052;-72
2023/04/07 00:08:06;;;;;;;32.60;17.30;;;;;;;;;;5062397;28;20262;-72
2023/04/07 00:10:32;;;;;;;30.70;17.13;;;;;;;;;;5061444;28;20812;-72
2023/04/07 00:12:57;;;;;;;30.00;16.80;;;;;;;;;;5062071;28;20147;-71
2023/04/07 00:15:22;;;;;;;33.30;17.85;;;;;;;;;;5060037;28;20028;-72
2023/04/07 00:17:48;;;;;;;34.50;18.13;;;;;;;;;;5060997;28;20040;-73
2023/04/07 00:20:13;;;;;;;37.92;19.42;;;;;;;;;;5067262;28;20417;-73
2023/04/07 00:22:38;;;;;;;43.30;20.90;;;;;;;;;;5082338;28;20036;-73
2023/04/07 00:25:04;;;;;;;41.30;21.83;;;;;;;;;;5072219;28;20355;-73
2023/04/07 00:27:29;;;;;;;43.70;21.52;;;;;;;;;;5062675;28;20115;-73
2023/04/07 00:29:54;;;;;;;47.27;24.07;;;;;;;;;;5067534;28;20035;-73
2023/04/07 00:32:20;;;;;;;52.40;25.23;;;;;;;;;;5067814;28;20040;-73
2023/04/07 00:34:45;;;;;;;47.08;23.48;;;;;;;;;;5064595;28;20381;-72
2023/04/07 00:37:10;;;;;;;46.07;23.57;;;;;;;;;;5063383;28;20087;-73
2023/04/07 00:39:36;;;;;;;50.25;23.98;;;;;;;;;;5062273;28;20029;-73
2023/04/07 00:42:02;;;;;;;51.30;23.95;;;;;;;;;;5057429;28;20577;-73
2023/04/07 00:44:27;;;;;;;44.17;22.30;;;;;;;;;;5060149;28;20037;-73
2023/04/07 00:46:52;;;;;;;46.10;22.40;;;;;;;;;;5062450;28;20052;-73
2023/04/07 00:49:18;;;;;;;50.63;24.45;;;;;;;;;;5084234;28;20265;-73
2023/04/07 00:51:44;;;;;;;47.47;23.27;;;;;;;;;;5066589;28;20036;-73
2023/04/07 00:54:10;;;;;;;48.83;23.30;;;;;;;;;;5058743;28;20555;-72
2023/04/07 00:56:35;;;;;;;49.90;23.45;;;;;;;;;;5067041;28;20040;-72
2023/04/07 00:59:02;;;;;;;43.72;21.70;;;;;;;;;;5082890;28;20085;-72
2023/04/07 01:01:40;;;;;;;51.35;23.98;;;;;;;;;;5060526;28;20505;-73
2023/04/07 01:04:12;;;;;;;47.45;22.92;;;;;;;;;;5065850;28;20031;-72
2023/04/07 01:06:39;;;;;;;46.33;22.02;;;;;;;;;;5058005;28;20025;-72
2023/04/07 01:09:06;;;;;;;49.10;23.15;;;;;;;;;;5057005;28;20048;-72
2023/04/07 01:12:10;;;;;;;46.38;22.38;;;;;;;;;;5058275;28;20025;-72
2023/04/07 01:14:40;;;;;;;45.33;21.83;;;;;;;;;;5000373;28;20030;-73
2023/04/07 01:17:05;;;;;;;49.65;23.15;;;;;;;;;;5001697;28;20124;-73
2023/04/07 01:19:39;;;;;;;50.15;23.95;;;;;;;;;;5000414;28;20491;-71
2023/04/07 01:22:07;;;;;;;47.90;23.50;;;;;;;;;;5005449;28;20039;-73
2023/04/07 01:24:44;;;;;;;47.70;23.35;;;;;;;;;;4997745;28;20515;-72
2023/04/07 01:27:20;;;;;;;44.78;21.45;;;;;;;;;;4999584;28;20038;-72
2023/04/07 01:29:47;;;;;;;47.38;23.67;;;;;;;;;;4999161;28;20736;-71
2023/04/07 01:32:13;;;;;;;48.80;22.20;;;;;;;;;;4996912;28;20129;-72
2023/04/07 01:34:39;;;;;;;50.67;24.13;;;;;;;;;;4990292;28;20038;-72
2023/04/07 01:37:05;;;;;;;47.80;23.48;;;;;;;;;;4999390;28;20096;-72
2023/04/07 01:39:31;;;;;;;51.10;24.60;;;;;;;;;;5000601;28;20065;-72
2023/04/07 01:41:56;;;;;;;47.47;23.88;;;;;;;;;;4987868;28;20038;-72
2023/04/07 01:44:23;;;;;;;51.35;23.08;;;;;;;;;;5008628;28;20033;-72
2023/04/07 01:46:52;;;;;;;48.03;23.08;;;;;;;;;;5046693;28;20033;-72
2023/04/07 01:49:18;;;;;;;48.27;22.23;;;;;;;;;;5068031;28;20743;-72
2023/04/07 01:51:44;;;;;;;46.40;22.17;;;;;;;;;;5069365;28;20081;-72
2023/04/07 01:54:09;;;;;;;49.53;23.90;;;;;;;;;;5047591;28;20070;-72
2023/04/07 01:56:34;;;;;;;49.60;23.98;;;;;;;;;;5065756;28;20474;-72
2023/04/07 01:59:00;;;;;;;50.90;23.80;;;;;;;;;;5065553;28;20021;-72
2023/04/07 02:01:25;;;;;;;45.37;22.67;;;;;;;;;;5072456;28;20280;-71
2023/04/07 02:03:50;;;;;;;50.38;23.25;;;;;;;;;;5060962;28;20039;-71
2023/04/07 02:06:17;;;;;;;51.40;23.13;;;;;;;;;;5075308;28;20039;-72
2023/04/07 02:08:46;;;;;;;49.05;23.13;;;;;;;;;;5060693;28;20265;-72
2023/04/07 02:11:12;;;;;;;39.72;18.77;;;;;;;;;;5064096;28;20028;-72
2023/04/07 02:13:37;;;;;;;51.83;24.55;;;;;;;;;;5068804;28;20032;-71
2023/04/07 02:16:04;;;;;;;50.90;23.38;;;;;;;;;;5048813;28;20036;-72
2023/04/07 02:18:31;;;;;;;52.22;23.98;;;;;;;;;;5041483;28;20487;-72
2023/04/07 02:20:57;;;;;;;52.63;23.55;;;;;;;;;;5075734;28;20741;-72
2023/04/07 02:23:22;;;;;;;51.45;24.35;;;;;;;;;;5045567;28;20096;-72
2023/04/07 02:25:47;;;;;;;55.35;25.00;;;;;;;;;;5041466;28;20120;-72
2023/04/07 02:28:13;;;;;;;50.63;23.80;;;;;;;;;;5036749;28;20025;-71
2023/04/07 02:30:38;;;;;;;54.78;25.27;;;;;;;;;;5042138;28;20031;-72
2023/04/07 02:33:03;;;;;;;47.83;23.52;;;;;;;;;;5041795;28;20067;-72
2023/04/07 02:35:29;;;;;;;55.47;25.20;;;;;;;;;;5042168;28;20062;-72
2023/04/07 02:37:54;;;;;;;57.27;25.90;;;;;;;;;;5039141;28;20289;-72
2023/04/07 02:40:19;;;;;;;59.40;25.75;;;;;;;;;;5042137;28;20332;-72
2023/04/07 02:42:45;;;;;;;50.00;24.48;;;;;;;;;;5078916;28;20455;-72
2023/04/07 02:45:10;;;;;;;53.33;24.23;;;;;;;;;;5046993;28;20136;-72
2023/04/07 02:47:36;;;;;;;56.42;25.35;;;;;;;;;;5042142;28;20035;-72
2023/04/07 02:50:01;;;;;;;52.88;25.30;;;;;;;;;;5045870;28;20025;-72
2023/04/07 02:52:26;;;;;;;58.60;26.08;;;;;;;;;;5041277;28;20534;-72
2023/04/07 02:54:52;;;;;;;56.33;26.07;;;;;;;;;;5040173;28;20022;-71
2023/04/07 02:57:17;;;;;;;57.73;26.57;;;;;;;;;;5038471;28;20270;-72
2023/04/07 02:59:42;;;;;;;56.40;26.20;;;;;;;;;;5043713;28;22214;-72
2023/04/07 03:02:08;;;;;;;57.10;25.30;;;;;;;;;;5039633;28;20083;-72
2023/04/07 03:04:33;;;;;;;53.43;25.30;;;;;;;;;;5045076;28;20039;-72
2023/04/07 03:06:59;;;;;;;59.45;26.10;;;;;;;;;;5045379;28;20136;-72
2023/04/07 03:09:24;;;;;;;57.08;25.38;;;;;;;;;;5046550;28;20082;-72
2023/04/07 03:11:49;;;;;;;55.57;25.77;;;;;;;;;;5050656;28;20032;-72
2023/04/07 03:14:15;;;;;;;56.08;26.50;;;;;;;;;;5046944;28;20289;-72
2023/04/07 03:16:40;;;;;;;57.80;26.38;;;;;;;;;;5054561;28;20049;-72
2023/04/07 03:19:05;;;;;;;56.80;25.88;;;;;;;;;;5068223;28;20407;-73
2023/04/07 03:21:31;;;;;;;56.70;26.43;;;;;;;;;;5046216;28;20082;-72
2023/04/07 03:23:56;;;;;;;57.15;25.05;;;;;;;;;;5054183;28;20037;-72
2023/04/07 03:26:21;;;;;;;57.42;26.67;;;;;;;;;;5065654;28;20051;-72
2023/04/07 03:28:47;;;;;;;61.63;27.77;;;;;;;;;;5048642;28;20016;-73
2023/04/07 03:31:12;;;;;;;57.13;26.53;;;;;;;;;;5068238;28;20283;-72
2023/04/07 03:33:37;;;;;;;57.63;26.37;;;;;;;;;;5075254;28;20277;-73
2023/04/07 03:36:03;;;;;;;60.60;27.23;;;;;;;;;;5063315;28;20368;-72
2023/04/07 03:38:28;;;;;;;60.35;27.20;;;;;;;;;;5071578;28;20367;-72
2023/04/07 03:40:53;;;;;;;55.08;26.10;;;;;;;;;;5078164;28;20491;-72
2023/04/07 03:43:18;;;;;;;59.50;26.88;;;;;;;;;;5065029;28;20032;-72
2023/04/07 03:45:44;;;;;;;57.13;25.60;;;;;;;;;;5083144;28;20020;-72
2023/04/07 03:48:10;;;;;;;55.78;26.25;;;;;;;;;;5062809;28;20051;-72
2023/04/07 03:50:39;;;;;;;56.85;26.25;;;;;;;1.01;nan;100330.72;5062787;28;20028;-72
2023/04/07 03:53:05;;;;;;;58.28;26.30;;;;;;;;;;5068547;28;20028;-72
2023/04/07 03:55:30;;;;;;;55.15;26.02;;;;;;;;;;5067159;28;20089;-72
2023/04/07 03:57:56;;;;;;;56.70;25.67;;;;;;;;;;5046520;28;20551;-72
2023/04/07 04:00:21;;;;;;;55.03;26.00;;;;;;;;;;5066620;28;20475;-73
2023/04/07 04:02:47;;;;;;;57.28;26.75;;;;;;;;;;5065954;28;20029;-72
2023/04/07 04:05:12;;;;;;;57.40;25.83;;;;;;;;;;5088604;28;20030;-73
2023/04/07 04:07:37;;;;;;;50.50;24.93;;;;;;;;;;5062990;28;20651;-72
2023/04/07 04:10:02;;;;;;;54.50;26.30;;;;;;;;;;5063728;28;20086;-73
2023/04/07 04:12:28;;;;;;;56.20;26.40;;;;;;;;;;5082255;28;20275;-73
2023/04/07 04:14:53;;;;;;;56.42;26.70;;;;;;;;;;5066273;28;20028;-73
2023/04/07 04:17:18;;;;;;;56.07;25.60;;;;;;;;;;5061812;28;20060;-72
2023/04/07 04:19:44;;;;;;;53.50;24.80;;;;;;;;;;5078921;28;20024;-72
2023/04/07 04:22:09;;;;;;;54.88;25.45;;;;;;;;;;5063902;28;20029;-72
2023/04/07 04:24:34;;;;;;;49.90;24.38;;;;;;;;;;5066771;28;20036;-73
2023/04/07 04:27:00;;;;;;;55.97;26.73;;;;;;;;;;5079357;28;20035;-72
2023/04/07 04:29:26;;;;;;;51.03;24.65;;;;;;;;;;5068916;28;20278;-71
2023/04/07 04:31:51;;;;;;;55.15;25.70;;;;;;;;;;5043020;28;20071;-74
2023/04/07 04:34:16;;;;;;;52.97;25.15;;;;;;;;;;5047650;28;20023;-72
2023/04/07 04:36:42;;;;;;;54.00;24.43;;;;;;;;;;5049495;28;20052;-74
2023/04/07 04:39:07;;;;;;;56.10;25.83;;;;;;;;;;5080374;28;20285;-73
2023/04/07 04:41:32;;;;;;;53.72;24.90;;;;;;;;;;5081461;28;20043;-73
2023/04/07 04:43:58;;;;;;;53.53;26.05;;;;;;;;;;5045618;28;20052;-73
2023/04/07 04:46:23;;;;;;;52.80;25.00;;;;;;;;;;5066383;28;20025;-74
2023/04/07 04:48:50;;;;;;;52.30;25.45;;;;;;;;;;5067712;28;20327;-73
2023/04/07 04:51:15;;;;;;;52.78;23.80;;;;;;;;;;5062018;28;20490;-73
2023/04/07 04:53:40;;;;;;;47.20;22.23;;;;;;;;;;5064068;28;20028;-72
2023/04/07 04:56:06;;;;;;;46.80;23.23;;;;;;;;;;5061919;28;20024;-74
2023/04/07 04:58:31;;;;;;;45.20;21.98;;;;;;;;;;5064987;28;20299;-73
2023/04/07 05:00:58;;;;;;;45.72;21.27;;;;;;;;;;5064669;28;20020;-73
2023/04/07 05:03:25;;;;;;;43.95;21.30;;;;;;;;;;5074816;28;20028;-73
2023/04/07 05:05:50;;;;;;;46.13;22.00;;;;;;;;;;5061952;28;20031;-73
2023/04/07 05:08:15;;;;;;;47.28;22.23;;;;;;;;;;5062756;28;20040;-73
2023/04/07 05:10:41;;;;;;;48.17;22.50;;;;;;;;;;5077072;28;20031;-73
2023/04/07 05:13:06;;;;;;;49.17;23.50;;;;;;;;;;5062460;28;20486;-72
2023/04/07 05:15:31;;;;;;;48.10;21.93;;;;;;;;;;5079054;28;20281;-73
2023/04/07 05:17:56;;;;;;;48.27;22.53;;;;;;;;;;5068500;28;20793;-74
2023/04/07 05:20:22;;;;;;;48.40;22.43;;;;;;;;;;5064368;28;20285;-73
2023/04/07 05:22:47;;;;;;;45.53;20.92;;;;;;;;;;5051244;28;20300;-73
2023/04/07 05:25:12;;;;;;;46.03;22.55;;;;;;;;;;5063042;28;20051;-72
2023/04/07 05:27:37;;;;;;;42.43;20.63;;;;;;;;;;5075162;28;20371;-74
2023/04/07 05:30:03;;;;;;;47.50;21.50;;;;;;;;;;5060039;28;20296;-74
2023/04/07 05:32:28;;;;;;;44.42;21.17;;;;;;;;;;5064923;28;20269;-74
2023/04/07 05:34:53;;;;;;;51.42;22.27;;;;;;;;;;5045507;28;20036;-73
2023/04/07 05:37:18;;;;;;;47.23;22.37;;;;;;;;;;5077136;28;20063;-71
2023/04/07 05:39:44;;;;;;;51.80;23.07;;;;;;;;;;5065318;28;20072;-72
2023/04/07 05:42:09;;;;;;;49.20;24.23;;;;;;;;;;5080537;28;20023;-72
2023/04/07 05:44:35;;;;;;;51.28;23.75;;;;;;;;;;5080372;28;20369;-71
2023/04/07 05:47:00;;;;;;;48.40;22.58;;;;;;;;;;5071277;28;20107;-71
2023/04/07 05:49:26;;;;;;;49.17;23.63;;;;;;;;;;5068439;28;20032;-72
2023/04/07 05:51:51;;;;;;;49.80;23.63;;;;;;;;;;5070930;28;20549;-72
2023/04/07 05:54:17;;;;;;;47.83;21.73;;;;;;;;;;5076813;28;20031;-72
2023/04/07 05:56:42;;;;;;;47.83;23.20;;;;;;;;;;5049630;28;20023;-72
2023/04/07 05:59:07;;;;;;;50.57;22.77;;;;;;;;;;5077626;28;20033;-71
2023/04/07 06:01:33;;;;;;;52.30;23.77;;;;;;;;;;5061902;28;20856;-73
2023/04/07 06:03:58;;;;;;;52.55;24.02;;;;;;;;;;5055351;28;20028;-71
2023/04/07 06:06:23;;;;;;;49.88;23.27;;;;;;;;;;5055302;28;20071;-74
2023/04/07 06:08:49;;;;;;;49.80;24.60;;;;;;;;;;5066681;28;20111;-72
2023/04/07 06:11:15;;;;;;;53.25;24.33;;;;;;;;;;5054366;28;20620;-73
2023/04/07 06:13:40;;;;;;;53.20;23.95;;;;;;;;;;5063484;28;20024;-74
2023/04/07 06:16:05;;;;;;;46.20;22.23;;;;;;;;;;5052492;28;20553;-76
2023/04/07 06:18:31;;;;;;;46.22;22.58;;;;;;;;;;5067262;28;20361;-75
2023/04/07 06:20:56;;;;;;;1038.10;231.45;;;;;;;;;;5065899;28;20029;-75
2023/04/07 06:23:21;;;;;;;1999.90;977.67;;;;;;;;;;5068191;28;20036;-75
2023/04/07 06:25:50;;;;;;;84.13;31.60;;;;;;;;;;5064400;28;20364;-75
2023/04/07 06:28:16;;;;;;;93.47;31.90;;;;;;;;;;5070596;28;20274;-76
2023/04/07 06:30:41;;;;;;;80.32;30.02;;;;;;;;;;5058227;28;20020;-75
2023/04/07 06:33:06;;;;;;;71.50;28.80;;;;;;;;;;5045866;28;20033;-75
2023/04/07 06:35:31;;;;;;;71.13;28.35;;;;;;;;;;5061944;28;20029;-74
2023/04/07 06:37:57;;;;;;;52.53;23.70;;;;;;;;;;5045837;28;20821;-74
2023/04/07 06:40:22;;;;;;;49.78;23.45;;;;;;;;;;5059042;28;20063;-75
2023/04/07 06:42:47;;;;;;;41.63;20.53;;;;;;;;;;5063484;28;20131;-76
2023/04/07 06:45:13;;;;;;;40.67;19.90;;;;;;;;;;5064362;28;20283;-75
2023/04/07 06:47:38;;;;;;;45.78;23.17;;;;;;;;;;5064937;28;20046;-74
2023/04/07 06:50:04;;;;;;;41.72;20.98;;;;;;;;;;5066771;28;20475;-76
2023/04/07 06:52:29;;;;;;;39.72;21.17;;;;;;;;;;5078527;28;20586;-75
2023/04/07 06:54:54;;;;;;;39.33;20.07;;;;;;;;;;5059612;28;21425;-74
2023/04/07 06:57:19;;;;;;;37.70;19.13;;;;;;;;;;5071671;28;20316;-74
2023/04/07 06:59:46;;;;;;;38.77;20.27;;;;;;;;;;5059180;28;20410;-74
2023/04/07 07:02:11;;;;;;;38.17;19.58;;;;;;;;;;5061421;28;20803;-75
2023/04/07 07:04:36;;;;;;;35.77;19.17;;;;;;;;;;5066299;28;20044;-73
2023/04/07 07:07:02;;;;;;;31.55;17.67;;;;;;;;;;5047842;28;20120;-75
2023/04/07 07:09:27;;;;;;;33.95;17.55;;;;;;;;;;5062418;28;20024;-74
2023/04/07 07:11:52;;;;;;;36.08;18.58;;;;;;;;;;5062801;28;20024;-74
2023/04/07 07:14:18;;;;;;;36.20;18.52;;;;;;;;;;5065552;28;20116;-74
2023/04/07 07:16:43;;;;;;;33.60;17.40;;;;;;;;;;5064078;28;20552;-74
2023/04/07 07:19:08;;;;;;;33.67;18.50;;;;;;;;;;5042714;28;20281;-74
2023/04/07 07:21:34;;;;;;;30.70;17.17;;;;;;;;;;5058759;28;20288;-74
2023/04/07 07:23:59;;;;;;;30.63;16.35;;;;;;;;;;5057072;28;20664;-74
2023/04/07 07:26:26;;;;;;;29.52;16.35;;;;;;;;;;5038782;28;20029;-74
2023/04/07 07:28:51;;;;;;;29.63;15.75;;;;;;;;;;5059126;28;20025;-74
2023/04/07 07:31:17;;;;;;;31.05;16.83;;;;;;;;;;5061804;28;20414;-74
2023/04/07 07:33:44;;;;;;;32.58;17.77;;;;;;;;;;5059469;28;20033;-74
2023/04/07 07:36:10;;;;;;;32.30;16.95;;;;;;;;;;5046106;28;20086;-74
2023/04/07 07:38:35;;;;;;;33.35;17.02;;;;;;;;;;5059436;28;20424;-74
2023/04/07 07:41:01;;;;;;;30.97;17.27;;;;;;;;;;5042510;28;20434;-73
2023/04/07 07:43:26;;;;;;;28.05;15.85;;;;;;;;;;5036664;28;20285;-75
2023/04/07 07:45:52;;;;;;;28.37;16.13;;;;;;;;;;5060381;28;20024;-74
2023/04/07 07:48:17;;;;;;;29.67;16.10;;;;;;;;;;5038627;28;20284;-75
2023/04/07 07:50:43;;;;;;;31.57;15.70;;;;;;;;;;5072258;28;20028;-74
2023/04/07 07:53:08;;;;;;;31.60;17.23;;;;;;;;;;5046691;28;20353;-75
2023/04/07 07:55:34;;;;;;;33.75;17.30;;;;;;;;;;5063461;28;20025;-72
2023/04/07 07:57:59;;;;;;;33.67;18.02;;;;;;;;;;5068690;28;20036;-73
2023/04/07 08:00:24;;;;;;;30.00;16.40;;;;;;;;;;5055604;28;20367;-73
2023/04/07 08:02:50;;;;;;;30.03;16.47;;;;;;;;;;5057642;28;20034;-73
2023/04/07 08:05:15;;;;;;;30.53;16.23;;;;;;;;;;5066794;28;20269;-73
2023/04/07 08:07:41;;;;;;;28.63;15.93;;;;;;;;;;5069192;28;20331;-73
2023/04/07 08:10:07;;;;;;;27.05;15.02;;;;;;;;;;5064105;28;20048;-73
2023/04/07 08:12:32;;;;;;;28.42;16.35;;;;;;;;;;5062676;28;20060;-72
2023/04/07 08:14:57;;;;;;;27.03;15.73;;;;;;;;;;5062275;28;20044;-73
2023/04/07 08:17:23;;;;;;;27.50;15.63;;;;;;;;;;5076358;28;20060;-73
2023/04/07 08:19:48;;;;;;;30.77;17.23;;;;;;;;;;5052619;28;20036;-73
2023/04/07 08:22:13;;;;;;;31.40;17.73;;;;;;;;;;5064804;28;20590;-73
2023/04/07 08:24:39;;;;;;;35.22;18.77;;;;;;;;;;5066825;28;20275;-73
2023/04/07 08:27:04;;;;;;;38.75;19.20;;;;;;;;;;5081535;28;20066;-73
2023/04/07 08:29:30;;;;;;;40.55;20.48;;;;;;;;;;5084604;28;20112;-73
2023/04/07 08:31:55;;;;;;;38.67;20.20;;;;;;;;;;5068426;28;20032;-73
2023/04/07 08:34:20;;;;;;;40.07;21.50;;;;;;;;;;5068965;28;20032;-72
2023/04/07 08:36:46;;;;;;;46.78;22.80;;;;;;;;;;5052080;28;20276;-73
2023/04/07 08:39:11;;;;;;;44.00;21.27;;;;;;;;;;5081070;28;20111;-73
2023/04/07 08:41:37;;;;;;;41.38;21.48;;;;;;;;;;5049630;28;20089;-73
2023/04/07 08:44:03;;;;;;;42.17;21.70;;;;;;;;;;5059583;28;20032;-73
2023/04/07 08:46:29;;;;;;;45.13;22.05;;;;;;;;;;5049626;28;20020;-73
2023/04/07 08:48:55;;;;;;;40.25;21.13;;;;;;;;;;5066204;28;20024;-73
2023/04/07 08:51:26;;;;;;;38.05;20.98;;;;;;;;;;5065620;28;20035;-73
2023/04/07 08:53:52;;;;;;;40.45;20.77;;;;;;;;;;5085763;28;20135;-73
2023/04/07 08:56:20;;;;;;;37.80;20.10;;;;;;;;;;5061713;28;20021;-73
2023/04/07 08:58:46;;;;;;;37.17;20.05;;;;;;;;;;5064820;28;20397;-73
2023/04/07 09:01:12;;;;;;;40.20;20.58;;;;;;;;;;5081630;28;20025;-74
2023/04/07 09:03:37;;;;;;;39.38;21.10;;;;;;;;;;5062453;28;20036;-73
2023/04/07 09:06:03;;;;;;;42.40;22.17;;;;;;;;;;5066267;28;20431;-74
2023/04/07 09:08:28;;;;;;;49.75;24.75;;;;;;;;;;5049145;28;20278;-73
2023/04/07 09:10:55;;;;;;;39.05;21.58;;;;;;;;;;5058186;28;20032;-73
2023/04/07 09:13:20;;;;;;;37.28;20.83;;;;;;;;;;5060745;28;20037;-73
2023/04/07 09:15:46;;;;;;;42.47;22.45;;;;;;;;;;5063481;28;20049;-73
2023/04/07 09:18:11;;;;;;;39.13;21.42;;;;;;;;;;5065623;28;20059;-73
2023/04/07 09:20:56;;;;;;;41.72;21.58;;;;;;;;;;5062200;28;20052;-73
2023/04/07 09:23:27;;;;;;;32.15;17.02;;;;;;;;;;5063274;28;20833;-73
2023/04/07 09:25:52;;;;;;;34.92;17.67;;;;;;;;;;5042619;28;20033;-73
2023/04/07 09:28:17;;;;;;;39.47;19.97;;;;;;;;;;5078685;28;20028;-73
2023/04/07 09:30:51;;;;;;;36.63;19.80;;;;;;;;;;5064166;28;20037;-73
2023/04/07 09:33:25;;;;;;;38.22;20.92;;;;;;;;;;5064282;28;20036;-74
2023/04/07 09:35:52;;;;;;;41.72;20.70;;;;;;;;;;5061565;28;20074;-73
2023/04/07 09:38:17;;;;;;;35.92;19.73;;;;;;;;;;5064460;28;20040;-73
2023/04/07 09:40:42;;;;;;;31.47;17.87;;;;;;;;;;5052128;28;20492;-72
2023/04/07 09:43:13;;;;;;;28.73;16.23;;;;;;;;;;5080418;28;20043;-72
2023/04/07 09:45:39;;;;;;;31.35;17.42;;;;;;;;;;5053915;28;20319;-74
2023/04/07 09:48:24;;;;;;;30.70;17.20;;;;;;;;;;5062518;28;20056;-72
2023/04/07 09:50:50;;;;;;;29.45;16.60;;;;;;;;;;5054266;28;20414;-73
2023/04/07 09:53:17;;;;;;;28.33;16.23;;;;;;;;;;5073960;28;20037;-73
2023/04/07 09:55:42;;;;;;;28.73;16.38;;;;;;;;;;5083823;28;20031;-73
2023/04/07 09:58:10;;;;;;;29.08;16.38;;;;;;;;;;5054489;28;20037;-73
2023/04/07 10:00:36;;;;;;;28.45;16.50;;;;;;;;;;5064641;28;20078;-72
2023/04/07 10:03:02;;;;;;;29.63;17.13;;;;;;;;;;5052869;28;20494;-74
2023/04/07 10:05:27;;;;;;;29.10;15.73;;;;;;;;;;5047336;28;20038;-73
2023/04/07 10:07:53;;;;;;;27.73;15.57;;;;;;;;;;5045489;28;20024;-73
2023/04/07 10:10:18;;;;;;;26.95;16.27;;;;;;;;;;5078791;28;20493;-73
2023/04/07 10:12:44;;;;;;;29.38;16.27;;;;;;;;;;5064602;28;20378;-74
2023/04/07 10:15:15;;;;;;;27.48;16.50;;;;;;;;;;5065143;28;20024;-73
2023/04/07 10:17:45;;;;;;;19.63;12.32;;;;;;;;;;5066438;28;20049;-74
2023/04/07 10:20:11;;;;;;;21.00;13.23;;;;;;;;;;5064168;28;20386;-73
2023/04/07 10:22:36;;;;;;;23.30;14.20;;;;;;;;;;5068502;28;20046;-73
2023/04/07 10:25:10;;;;;;;26.25;15.40;;;;;;;;;;5063949;28;20104;-73
2023/04/07 10:27:40;;;;;;;23.20;14.73;;;;;;;;;;5061005;28;20094;-73
2023/04/07 10:30:10;;;;;;;30.48;15.85;;;;;;;;;;5056165;28;20023;-73
2023/04/07 10:32:49;;;;;;;28.35;15.73;;;;;;;;;;5042046;28;20046;-73
2023/04/07 10:35:14;;;;;;;32.63;17.65;;;;;;;;;;5062651;28;20035;-73
2023/04/07 10:37:40;;;;;;;28.45;16.30;;;;;;;;;;5063838;28;20029;-73
2023/04/07 10:40:17;;;;;;;32.17;16.83;;;;;;;;;;5062572;28;20039;-73
2023/04/07 10:42:42;;;;;;;26.13;15.07;;;;;;;;;;5065775;28;20474;-74
2023/04/07 10:45:08;;;;;;;24.50;15.50;;;;;;;;;;5065645;28;20020;-73
2023/04/07 10:47:53;;;;;;;30.63;17.92;;;;;;;;;;5054609;28;20486;-73
2023/04/07 10:50:19;;;;;;;27.95;16.92;;;;;;;;;;5054963;28;20110;-73
2023/04/07 10:52:46;;;;;;;29.00;17.63;;;;;;;;;;5059120;28;20744;-73
2023/04/07 10:55:30;;;;;;;32.15;18.23;;;;;;;;;;5042024;28;20415;-73
2023/04/07 10:58:15;;;;;;;29.95;17.40;;;;;;;;;;5057298;28;20136;-73
2023/04/07 11:00:40;;;;;;;28.70;16.70;;;;;;;;;;5058615;28;20027;-73
2023/04/07 11:03:12;;;;;;;24.33;14.13;;;;;;;;;;5059847;28;20571;-73
2023/04/07 11:05:41;;;;;;;23.15;14.07;;;;;;;;;;5063976;28;20025;-74
2023/04/07 11:08:06;;;;;;;23.38;13.95;;;;;;;;;;5068909;28;20093;-74
2023/04/07 11:10:32;;;;;;;28.27;16.02;;;;;;;;;;5061628;28;20033;-74
2023/04/07 11:12:58;;;;;;;25.40;15.85;;;;;;;;;;5042306;28;20079;-73
2023/04/07 11:15:23;;;;;;;28.80;15.20;;;;;;;;;;5061349;28;20094;-74
2023/04/07 11:18:07;;;;;;;25.80;15.90;;;;;;;;;;5060919;28;20025;-73
2023/04/07 11:20:41;;;;;;;22.77;14.82;;;;;;;;;;5060031;28;20067;-74
2023/04/07 11:23:07;;;;;;;21.70;13.77;;;;;;;;;;5060781;28;20549;-73
2023/04/07 11:25:33;;;;;;;23.37;14.53;;;;;;;;;;5043510;28;20028;-73
2023/04/07 11:27:58;;;;;;;24.17;14.90;;;;;;;;;;5061492;28;20276;-74
2023/04/07 11:30:24;;;;;;;24.43;15.00;;;;;;;;;;5089959;28;20035;-73
2023/04/07 11:32:50;;;;;;;23.88;14.48;;;;;;;;;;5076633;28;20757;-73
2023/04/07 11:35:15;;;;;;;24.30;15.38;;;;;;;;;;5069377;28;20116;-73
2023/04/07 11:37:41;;;;;;;23.65;14.23;;;;;;;;;;5068454;28;20230;-73
2023/04/07 11:40:07;;;;;;;22.08;13.30;;;;;;;;;;5060588;28;20028;-73
2023/04/07 11:42:38;;;;;;;22.38;13.95;;;;;;;;;;5046767;28;20025;-73
2023/04/07 11:45:04;;;;;;;25.92;14.70;;;;;;;;;;5040636;28;20475;-74
2023/04/07 11:47:36;;;;;;;21.17;13.18;;;;;;;;;;5059657;28;20032;-73
2023/04/07 11:50:02;;;;;;;19.58;11.80;;;;;;;;;;5047726;28;20030;-73
2023/04/07 11:52:27;;;;;;;19.80;12.77;;;;;;;;;;5062052;28;20504;-72
2023/04/07 11:54:52;;;;;;;19.88;12.38;;;;;;;;;;5063050;28;20023;-73
2023/04/07 11:57:24;;;;;;;20.07;12.67;;;;;;;;;;5066603;28;20020;-73
2023/04/07 11:59:50;;;;;;;20.38;12.40;;;;;;;;;;5045190;28;20320;-74
2023/04/07 12:02:33;;;;;;;18.38;12.07;;;;;;;;;;5057036;28;20072;-72
2023/04/07 12:04:58;;;;;;;17.80;11.60;;;;;;;;;;5088877;28;20041;-73
2023/04/07 12:07:23;;;;;;;18.80;12.07;;;;;;;;;;5071078;28;20028;-73
2023/04/07 12:09:49;;;;;;;18.30;11.87;;;;;;;;;;5069182;28;20272;-73
2023/04/07 12:12:23;;;;;;;18.40;11.45;;;;;;;;;;5081326;28;20811;-73
2023/04/07 12:14:49;;;;;;;19.02;11.50;;;;;;;;;;5064577;28;20106;-71
2023/04/07 12:17:24;;;;;;;16.85;11.43;;;;;;;;;;5062300;28;20187;-73
2023/04/07 12:19:49;;;;;;;17.48;11.40;;;;;;;;;;5048821;28;20043;-74
2023/04/07 12:22:15;;;;;;;16.73;11.30;;;;;;;;;;5080178;28;20028;-72
2023/04/07 12:24:40;;;;;;;17.60;10.77;;;;;;;;;;5078412;28;20028;-73
2023/04/07 12:27:05;;;;;;;17.38;11.63;;;;;;;;;;5043925;28;20217;-75
2023/04/07 12:29:31;;;;;;;16.88;11.02;;;;;;;;;;5067362;28;20118;-75
2023/04/07 12:31:56;;;;;;;15.98;10.60;;;;;;;;;;5063170;28;20161;-77
2023/04/07 12:34:22;;;;;;;15.30;10.00;;;;;;;;;;5060801;28;20024;-76
2023/04/07 12:36:47;;;;;;;15.60;10.73;;;;;;;;;;5078292;28;20032;-75
2023/04/07 12:39:12;;;;;;;16.45;11.15;;;;;;;;;;5058479;28;20037;-75
2023/04/07 12:41:38;;;;;;;14.18;9.88;;;;;;;;;;5050498;28;20086;-75
2023/04/07 12:44:04;;;;;;;16.83;10.73;;;;;;;;;;5055457;28;20033;-75
2023/04/07 12:46:29;;;;;;;16.10;11.02;;;;;;;;;;5069067;28;20059;-75
2023/04/07 12:48:54;;;;;;;17.20;10.70;;;;;;;;;;5069377;28;20078;-76
2023/04/07 12:51:20;;;;;;;16.70;10.90;;;;;;;;;;5073482;28;20040;-76
2023/04/07 12:53:46;;;;;;;16.95;11.02;;;;;;;;;;5068118;28;20037;-76
2023/04/07 12:56:12;;;;;;;18.63;10.77;;;;;;;;;;5066445;28;20021;-76
2023/04/07 12:58:37;;;;;;;16.52;10.63;;;;;;;;;;5073721;28;20101;-76
2023/04/07 13:01:02;;;;;;;14.60;10.02;;;;;;;;;;5077199;28;20063;-77
2023/04/07 13:03:28;;;;;;;16.47;10.67;;;;;;;;;;5074194;28;20029;-77
2023/04/07 13:05:54;;;;;;;14.50;9.90;;;;;;;;;;5080248;28;20669;-78
2023/04/07 13:08:20;;;;;;;17.38;10.98;;;;;;;;;;5069344;28;20281;-77
2023/04/07 13:10:45;;;;;;;15.05;10.68;;;;;;;;;;5075624;28;20078;-78
2023/04/07 13:13:10;;;;;;;15.57;10.52;;;;;;;;;;5067179;28;20054;-74
2023/04/07 13:15:36;;;;;;;14.03;9.70;;;;;;;;;;5070589;28;20047;-75
2023/04/07 13:18:01;;;;;;;14.18;9.38;;;;;;;;;;5050717;28;20316;-71
2023/04/07 13:20:27;;;;;;;14.52;9.65;;;;;;;;;;5057879;28;20428;-70
2023/04/07 13:22:52;;;;;;;15.00;9.88;;;;;;;;;;5048734;28;20116;-77
2023/04/07 13:25:17;;;;;;;14.45;9.60;;;;;;;;;;5069594;28;20377;-77
2023/04/07 13:27:43;;;;;;;15.23;10.15;;;;;;;;;;5053769;28;20056;-76
2023/04/07 13:30:08;;;;;;;16.50;10.47;;;;;;;;;;5074818;28;20044;-76
2023/04/07 13:32:33;;;;;;;14.75;10.07;;;;;;;;;;5067158;28;20288;-76
2023/04/07 13:34:59;;;;;;;14.90;10.40;;;;;;;;;;5067520;28;20613;-77
2023/04/07 13:37:24;;;;;;;14.88;10.02;;;;;;;;;;5061494;28;20279;-79
2023/04/07 13:39:49;;;;;;;18.15;9.88;;;;;;;;;;5074655;28;20109;-77
2023/04/07 13:42:19;;;;;;;16.20;10.05;;;;;;;;;;5062104;28;20035;-77
2023/04/07 13:44:46;;;;;;;17.77;10.52;;;;;;;;;;5061249;28;20048;-76
2023/04/07 13:47:13;;;;;;;16.90;9.82;;;;;;;;;;5064450;28;20119;-76
2023/04/07 13:49:39;;;;;;;14.65;9.73;;;;;;;;;;5081109;28;20009;-79
2023/04/07 13:52:04;;;;;;;14.05;9.63;;;;;;;;;;5067449;28;20086;-76
2023/04/07 13:54:29;;;;;;;15.73;9.90;;;;;;;;;;5062499;28;20054;-77
2023/04/07 13:56:55;;;;;;;14.97;9.80;;;;;;;;;;5049497;28;20036;-77
2023/04/07 13:59:20;;;;;;;14.50;9.43;;;;;;;;;;5061260;28;20283;-77
2023/04/07 14:01:45;;;;;;;17.90;10.80;;;;;;;;;;5059604;28;20125;-69
2023/04/07 14:04:11;;;;;;;16.10;10.48;;;;;;;;;;5063512;28;20028;-69
2023/04/07 14:06:36;;;;;;;15.35;9.90;;;;;;;;;;5074683;28;20085;-69
2023/04/07 14:09:02;;;;;;;21.10;11.13;;;;;;;;;;5045818;28;20120;-69
2023/04/07 14:11:28;;;;;;;16.02;9.40;;;;;;;;;;5061483;28;20032;-69